createdAt,value
2022-07-25T00:00:23.355Z,10.07
2022-07-25T00:03:18.516Z,9.30
2022-07-25T00:06:13.480Z,11.93
2022-07-25T00:09:10.454Z,11.17
2022-07-25T00:12:02.427Z,15.87
2022-07-25T00:14:56.695Z,9.87
2022-07-25T00:17:49.719Z,11.47
2022-07-25T00:20:41.622Z,10.90
2022-07-25T00:23:33.537Z,9.67
2022-07-25T00:26:25.671Z,11.73
2022-07-25T00:29:17.836Z,10.50
2022-07-25T00:32:10.531Z,10.60
2022-07-25T00:35:04.012Z,9.67
2022-07-25T00:37:56.465Z,10.10
2022-07-25T00:40:54.177Z,9.33
2022-07-25T00:43:48.714Z,10.80
2022-07-25T00:46:42.640Z,9.67
2022-07-25T00:49:34.722Z,9.20
2022-07-25T00:52:27.592Z,14.23
2022-07-25T00:55:20.481Z,10.93
2022-07-25T00:58:12.865Z,11.83
2022-07-25T01:01:06.281Z,10.17
2022-07-25T01:03:58.611Z,9.60
2022-07-25T01:06:50.984Z,10.83
2022-07-25T01:09:43.141Z,10.57
2022-07-25T01:12:45.416Z,9.07
2022-07-25T01:15:37.753Z,12.40
2022-07-25T01:18:31.981Z,10.13
2022-07-25T01:21:24.659Z,9.07
2022-07-25T01:24:17.181Z,10.97
2022-07-25T01:27:09.674Z,10.30
2022-07-25T01:30:13.893Z,8.83
2022-07-25T01:33:06.770Z,10.87
2022-07-25T01:35:59.356Z,10.73
2022-07-25T01:38:51.932Z,9.67
2022-07-25T01:41:47.171Z,11.03
2022-07-25T01:44:39.476Z,8.97
2022-07-25T01:47:32.126Z,8.67
2022-07-25T01:50:24.394Z,11.40
2022-07-25T01:53:17.216Z,8.73
2022-07-25T01:56:13.307Z,8.73
2022-07-25T01:59:05.984Z,9.07
2022-07-25T02:01:58.833Z,9.33
2022-07-25T02:04:51.093Z,10.13
2022-07-25T02:07:43.476Z,9.00
2022-07-25T02:10:36.555Z,9.70
2022-07-25T02:13:29.775Z,8.73
2022-07-25T02:16:29.228Z,9.80
2022-07-25T02:19:22.640Z,11.73
2022-07-25T02:22:14.853Z,21.17
2022-07-25T02:25:08.136Z,11.63
2022-07-25T02:28:00.397Z,11.37
2022-07-25T02:30:53.505Z,9.63
2022-07-25T02:33:45.502Z,10.83
2022-07-25T02:36:37.813Z,10.60
2022-07-25T02:39:31.028Z,11.07
2022-07-25T02:42:24.022Z,9.17
2022-07-25T02:45:16.657Z,11.20
2022-07-25T02:48:10.062Z,9.83
2022-07-25T02:51:02.397Z,11.03
2022-07-25T02:53:57.762Z,10.87
2022-07-25T02:56:51.144Z,10.10
2022-07-25T02:59:42.827Z,10.00
2022-07-25T03:02:36.092Z,9.37
2022-07-25T03:05:28.533Z,13.60
2022-07-25T03:08:20.533Z,13.73
2022-07-25T03:11:12.546Z,12.30
2022-07-25T03:14:05.083Z,15.37
2022-07-25T03:16:57.745Z,11.30
2022-07-25T03:19:50.128Z,10.43
2022-07-25T03:22:42.488Z,10.97
2022-07-25T03:25:35.012Z,14.20
2022-07-25T03:28:26.975Z,13.07
2022-07-25T03:31:19.265Z,13.00
2022-07-25T03:34:12.129Z,9.17
2022-07-25T03:37:04.672Z,12.00
2022-07-25T03:39:57.226Z,11.60
2022-07-25T03:42:50.343Z,12.63
2022-07-25T03:45:42.758Z,10.03
2022-07-25T03:48:35.841Z,12.37
2022-07-25T03:51:28.563Z,12.00
2022-07-25T03:54:21.044Z,10.83
2022-07-25T03:57:13.101Z,9.87
2022-07-25T04:00:07.096Z,11.00
2022-07-25T04:02:59.296Z,10.75
2022-07-25T04:05:51.462Z,10.87
2022-07-25T04:08:44.393Z,10.03
2022-07-25T04:11:36.738Z,10.27
2022-07-25T04:14:28.980Z,10.30
2022-07-25T04:17:21.609Z,11.10
2022-07-25T04:20:15.611Z,11.13
2022-07-25T04:23:08.552Z,10.87
2022-07-25T04:26:01.319Z,11.77
2022-07-25T04:28:54.030Z,12.00
2022-07-25T04:31:45.903Z,10.70
2022-07-25T04:34:38.318Z,12.53
2022-07-25T04:37:30.507Z,12.50
2022-07-25T04:40:25.404Z,15.83
2022-07-25T04:43:17.901Z,9.47
2022-07-25T04:46:10.170Z,13.50
2022-07-25T04:49:02.399Z,13.50
2022-07-25T04:51:54.772Z,13.20
2022-07-25T04:54:46.996Z,12.50
2022-07-25T04:57:39.535Z,13.23
2022-07-25T05:00:31.858Z,11.43
2022-07-25T05:03:24.174Z,13.50
2022-07-25T05:06:16.243Z,12.43
2022-07-25T05:09:09.128Z,12.83
2022-07-25T05:12:01.154Z,13.27
2022-07-25T05:14:54.408Z,12.97
2022-07-25T05:17:46.718Z,16.30
2022-07-25T05:20:39.592Z,14.83
2022-07-25T05:23:31.878Z,12.87
2022-07-25T05:26:24.173Z,13.03
2022-07-25T05:29:16.246Z,12.13
2022-07-25T05:32:09.218Z,13.10
2022-07-25T05:35:02.056Z,13.17
2022-07-25T05:37:54.449Z,12.07
2022-07-25T05:40:46.933Z,13.03
2022-07-25T05:43:39.790Z,11.67
2022-07-25T05:46:33.754Z,15.73
2022-07-25T05:49:26.623Z,14.10
2022-07-25T05:52:18.676Z,11.00
2022-07-25T05:55:13.106Z,12.20
2022-07-25T05:58:05.025Z,13.47
2022-07-25T06:00:57.679Z,12.00
2022-07-25T06:03:50.638Z,12.00
2022-07-25T06:06:42.621Z,11.37
2022-07-25T06:09:35.398Z,10.20
2022-07-25T06:12:27.685Z,11.73
2022-07-25T06:15:22.861Z,11.60
2022-07-25T06:18:19.287Z,10.90
2022-07-25T06:21:11.754Z,10.03
2022-07-25T06:24:05.241Z,11.30
2022-07-25T06:26:57.719Z,10.90
2022-07-25T06:29:50.535Z,9.80
2022-07-25T06:32:43.342Z,9.27
2022-07-25T06:35:35.544Z,11.40
2022-07-25T06:38:27.398Z,12.80
2022-07-25T06:41:19.848Z,12.40
2022-07-25T06:44:13.295Z,9.67
2022-07-25T06:47:06.037Z,10.80
2022-07-25T06:49:58.777Z,12.10
2022-07-25T06:52:51.303Z,9.90
2022-07-25T06:55:43.447Z,11.40
2022-07-25T06:58:36.325Z,9.80
2022-07-25T07:01:29.442Z,13.77
2022-07-25T07:04:22.088Z,10.07
2022-07-25T07:07:13.837Z,8.80
2022-07-25T07:10:08.539Z,11.13
2022-07-25T07:13:12.642Z,8.60
2022-07-25T07:16:06.226Z,11.27
2022-07-25T07:18:59.044Z,7.90
2022-07-25T07:21:51.742Z,8.67
2022-07-25T07:24:44.169Z,11.37
2022-07-25T07:27:36.570Z,8.53
2022-07-25T07:30:58.663Z,8.77
2022-07-25T07:33:42.679Z,6.87
2022-07-25T07:36:34.618Z,9.43
2022-07-25T07:39:27.432Z,9.37
2022-07-25T07:42:19.188Z,9.03
2022-07-25T07:45:26.844Z,7.53
2022-07-25T07:48:19.008Z,8.97
2022-07-25T07:51:12.101Z,9.50
2022-07-25T07:54:21.603Z,9.50
2022-07-25T07:57:15.148Z,10.80
2022-07-25T08:00:13.490Z,8.07
2022-07-25T08:03:09.790Z,7.08
2022-07-25T08:06:03.189Z,6.60
2022-07-25T08:08:54.971Z,9.93
2022-07-25T08:11:46.892Z,8.93
2022-07-25T08:14:39.025Z,8.30
2022-07-25T08:17:31.705Z,9.53
2022-07-25T08:20:40.173Z,10.43
2022-07-25T08:23:34.974Z,6.40
2022-07-25T08:26:28.285Z,9.07
2022-07-25T08:29:25.009Z,8.83
2022-07-25T08:32:21.221Z,9.17
2022-07-25T08:35:15.386Z,6.63
2022-07-25T08:38:08.194Z,8.30
2022-07-25T08:41:03.342Z,7.67
2022-07-25T08:43:56.254Z,7.57
2022-07-25T08:46:49.800Z,6.33
2022-07-25T08:49:43.071Z,9.87
2022-07-25T08:52:37.400Z,11.30
2022-07-25T08:55:29.301Z,7.10
2022-07-25T08:58:22.345Z,8.33
2022-07-25T09:01:14.556Z,7.63
2022-07-25T09:04:09.744Z,7.27
2022-07-25T09:07:08.241Z,6.70
2022-07-25T09:10:01.825Z,7.53
2022-07-25T09:12:59.958Z,8.00
2022-07-25T09:15:54.188Z,6.50
2022-07-25T09:18:46.760Z,7.80
2022-07-25T09:21:40.069Z,6.93
2022-07-25T09:24:33.895Z,8.97
2022-07-25T09:27:26.321Z,6.43
2022-07-25T09:30:21.776Z,7.20
2022-07-25T09:33:14.387Z,9.77
2022-07-25T09:36:14.620Z,7.03
2022-07-25T09:39:07.242Z,9.68
2022-07-25T09:41:59.547Z,6.93
2022-07-25T09:45:05.146Z,8.43
2022-07-25T09:48:00.085Z,6.87
2022-07-25T09:50:53.222Z,7.20
2022-07-25T09:53:45.864Z,7.77
2022-07-25T09:56:38.487Z,9.07
2022-07-25T09:59:30.395Z,7.73
2022-07-25T10:02:35.358Z,8.00
2022-07-25T10:05:41.902Z,10.93
2022-07-25T10:08:38.451Z,7.37
2022-07-25T10:11:32.107Z,6.00
2022-07-25T10:14:24.495Z,6.77
2022-07-25T10:17:24.767Z,5.83
2022-07-25T10:20:17.774Z,7.65
2022-07-25T10:23:24.608Z,6.43
2022-07-25T10:26:19.805Z,7.13
2022-07-25T10:29:15.548Z,6.77
2022-07-25T10:32:13.933Z,6.03
2022-07-25T10:35:18.017Z,6.53
2022-07-25T10:38:10.702Z,6.67
2022-07-25T10:41:06.091Z,6.93
2022-07-25T10:44:02.183Z,8.03
2022-07-25T10:47:06.157Z,7.83
2022-07-25T10:53:13.884Z,6.30
2022-07-25T10:56:11.753Z,5.40
2022-07-25T10:59:05.423Z,7.83
2022-07-25T11:01:58.916Z,6.60
2022-07-25T11:05:03.322Z,7.13
2022-07-25T11:08:21.607Z,6.63
2022-07-25T11:11:10.596Z,7.40
2022-07-25T11:14:03.441Z,7.47
2022-07-25T11:16:57.483Z,6.00
2022-07-25T11:19:57.685Z,7.30
2022-07-25T11:22:55.430Z,5.78
2022-07-25T11:25:47.954Z,9.03
2022-07-25T11:28:49.310Z,7.50
2022-07-25T11:31:42.082Z,8.27
2022-07-25T11:34:36.237Z,9.63
2022-07-25T11:37:29.533Z,6.70
2022-07-25T11:40:23.492Z,10.03
2022-07-25T11:43:23.099Z,7.23
2022-07-25T11:46:15.780Z,7.37
2022-07-25T11:49:09.475Z,6.60
2022-07-25T11:52:01.611Z,8.43
2022-07-25T11:54:58.630Z,7.73
2022-07-25T11:57:51.443Z,7.93
2022-07-25T12:00:47.078Z,8.37
2022-07-25T12:03:42.770Z,6.30
2022-07-25T12:06:35.679Z,7.77
2022-07-25T12:09:27.957Z,7.27
2022-07-25T12:12:20.581Z,7.95
2022-07-25T12:15:15.330Z,6.83
2022-07-25T12:18:09.600Z,7.30
2022-07-25T12:21:01.777Z,8.50
2022-07-25T12:23:54.067Z,7.10
2022-07-25T12:26:45.859Z,9.10
2022-07-25T12:29:37.927Z,7.60
2022-07-25T12:32:31.750Z,7.87
2022-07-25T12:35:24.683Z,7.10
2022-07-25T12:38:16.893Z,7.00
2022-07-25T12:41:17.477Z,7.33
2022-07-25T12:44:13.548Z,6.40
2022-07-25T12:47:06.190Z,5.77
2022-07-25T12:49:58.745Z,7.93
2022-07-25T12:52:51.395Z,6.70
2022-07-25T12:55:44.169Z,6.67
2022-07-25T12:58:36.097Z,7.43
2022-07-25T13:01:28.419Z,7.00
2022-07-25T13:04:20.701Z,10.33
2022-07-25T13:07:14.420Z,7.30
2022-07-25T13:10:10.339Z,6.80
2022-07-25T13:13:02.377Z,6.87
2022-07-25T13:15:54.772Z,9.40
2022-07-25T13:18:47.006Z,6.73
2022-07-25T13:21:39.502Z,10.43
2022-07-25T13:24:31.625Z,7.40
2022-07-25T13:27:24.739Z,7.87
2022-07-25T13:30:17.233Z,8.77
2022-07-25T13:33:11.067Z,7.73
2022-07-25T13:36:03.532Z,8.33
2022-07-25T13:38:56.745Z,8.23
2022-07-25T13:41:49.257Z,7.53
2022-07-25T13:44:42.393Z,7.60
2022-07-25T13:47:36.996Z,8.77
2022-07-25T13:50:28.835Z,7.60
2022-07-25T13:53:22.870Z,8.47
2022-07-25T13:56:16.381Z,8.27
2022-07-25T13:59:08.612Z,8.60
2022-07-25T14:02:00.979Z,7.50
2022-07-25T14:04:53.456Z,7.50
2022-07-25T14:07:45.824Z,24.07
2022-07-25T14:10:38.270Z,9.30
2022-07-25T14:13:30.703Z,9.40
2022-07-25T14:16:24.094Z,7.93
2022-07-25T14:19:17.920Z,7.47
2022-07-25T14:22:10.567Z,9.67
2022-07-25T14:25:03.325Z,9.47
2022-07-25T14:27:56.009Z,10.23
2022-07-25T14:30:48.240Z,9.20
2022-07-25T14:33:41.399Z,7.20
2022-07-25T14:36:33.850Z,9.30
2022-07-25T14:39:26.291Z,8.43
2022-07-25T14:42:18.923Z,9.13
2022-07-25T14:45:15.098Z,10.70
2022-07-25T14:48:08.886Z,9.03
2022-07-25T14:51:01.590Z,7.43
2022-07-25T14:53:54.469Z,12.27
2022-07-25T14:56:46.691Z,9.67
2022-07-25T14:59:38.881Z,8.30
2022-07-25T15:02:31.340Z,10.07
2022-07-25T15:05:23.536Z,7.60
2022-07-25T15:08:16.157Z,10.37
2022-07-25T15:11:08.630Z,8.75
2022-07-25T15:14:03.773Z,9.30
2022-07-25T15:16:55.837Z,8.17
2022-07-25T15:19:48.182Z,7.97
2022-07-25T15:22:40.039Z,8.40
2022-07-25T15:26:00.570Z,9.07
2022-07-25T15:28:45.019Z,7.97
2022-07-25T15:31:39.169Z,8.30
2022-07-25T15:34:32.950Z,7.90
2022-07-25T15:37:25.394Z,10.13
2022-07-25T15:40:17.934Z,9.23
2022-07-25T15:43:11.922Z,8.63
2022-07-25T15:46:04.599Z,7.53
2022-07-25T15:48:58.130Z,8.27
2022-07-25T15:51:50.199Z,7.87
2022-07-25T15:54:42.755Z,8.73
2022-07-25T15:57:34.583Z,7.93
2022-07-25T16:00:29.651Z,9.20
2022-07-25T16:03:24.357Z,7.80
2022-07-25T16:06:21.126Z,8.57
2022-07-25T16:09:14.067Z,8.20
2022-07-25T16:12:06.829Z,9.67
2022-07-25T16:14:59.838Z,8.50
2022-07-25T16:17:53.849Z,8.97
2022-07-25T16:20:46.166Z,8.87
2022-07-25T16:23:43.761Z,7.93
2022-07-25T16:26:37.808Z,9.60
2022-07-25T16:29:30.887Z,7.87
2022-07-25T16:32:24.121Z,9.67
2022-07-25T16:35:16.227Z,8.33
2022-07-25T16:38:09.753Z,7.87
2022-07-25T16:41:02.047Z,9.63
2022-07-25T16:43:53.346Z,9.73
2022-07-25T16:46:46.676Z,8.20
2022-07-25T16:49:39.184Z,9.80
2022-07-25T16:52:31.679Z,11.37
2022-07-25T16:55:24.458Z,10.20
2022-07-25T16:58:17.142Z,8.47
2022-07-25T17:01:09.260Z,10.37
2022-07-25T17:04:02.613Z,9.67
2022-07-25T17:06:55.610Z,8.40
2022-07-25T17:09:47.959Z,9.47
2022-07-25T17:12:41.972Z,12.30
2022-07-25T17:15:34.646Z,18.00
2022-07-25T17:18:26.925Z,17.47
2022-07-25T17:21:21.872Z,14.30
2022-07-25T17:24:14.577Z,12.03
2022-07-25T17:27:07.769Z,9.60
2022-07-25T17:30:00.431Z,10.70
2022-07-25T17:32:53.828Z,11.37
2022-07-25T17:35:46.228Z,10.47
2022-07-25T17:38:38.705Z,10.57
2022-07-25T17:41:30.965Z,11.67
2022-07-25T17:44:22.938Z,9.87
2022-07-25T17:47:14.775Z,8.40
2022-07-25T17:50:09.018Z,9.50
2022-07-25T17:53:02.475Z,9.23
2022-07-25T17:55:55.018Z,10.13
2022-07-25T17:58:46.944Z,9.50
2022-07-25T18:01:40.328Z,12.57
2022-07-25T18:04:32.681Z,15.73
2022-07-25T18:07:25.357Z,9.87
2022-07-25T18:10:18.603Z,14.43
2022-07-25T18:13:10.855Z,12.80
2022-07-25T18:16:03.343Z,13.03
2022-07-25T18:18:55.154Z,12.53
2022-07-25T18:21:48.156Z,10.63
2022-07-25T18:24:41.025Z,9.43
2022-07-25T18:27:33.521Z,9.30
2022-07-25T18:30:29.153Z,12.50
2022-07-25T18:33:22.401Z,13.07
2022-07-25T18:36:15.155Z,15.47
2022-07-25T18:39:07.739Z,15.10
2022-07-25T18:42:00.240Z,15.40
2022-07-25T18:44:52.417Z,16.77
2022-07-25T18:47:45.310Z,13.47
2022-07-25T18:50:37.503Z,14.90
2022-07-25T18:53:29.589Z,14.30
2022-07-25T18:56:22.165Z,12.70
2022-07-25T18:59:13.791Z,13.37
2022-07-25T19:02:07.057Z,16.73
2022-07-25T19:04:59.998Z,18.67
2022-07-25T19:07:52.759Z,13.90
2022-07-25T19:10:44.999Z,14.50
2022-07-25T19:13:49.513Z,13.93
2022-07-25T19:16:43.916Z,13.70
2022-07-25T19:19:36.249Z,12.37
2022-07-25T19:22:28.533Z,14.13
2022-07-25T19:25:21.593Z,14.63
2022-07-25T19:28:15.653Z,15.47
2022-07-25T19:31:08.849Z,12.00
2022-07-25T19:34:01.392Z,15.87
2022-07-25T19:36:55.976Z,13.83
2022-07-25T19:39:49.287Z,17.60
2022-07-25T19:42:42.134Z,15.37
2022-07-25T19:45:34.787Z,18.60
2022-07-25T19:48:27.448Z,13.23
2022-07-25T19:51:19.483Z,13.33
2022-07-25T19:54:11.975Z,12.70
2022-07-25T19:57:05.195Z,13.03
2022-07-25T19:59:57.672Z,11.90
2022-07-25T20:02:50.505Z,13.60
2022-07-25T20:05:43.050Z,14.40
2022-07-25T20:08:35.335Z,12.87
2022-07-25T20:11:28.257Z,11.57
2022-07-25T20:14:20.238Z,14.23
2022-07-25T20:17:12.552Z,15.50
2022-07-25T20:20:05.872Z,13.93
2022-07-25T20:22:58.436Z,12.93
2022-07-25T20:25:50.402Z,15.83
2022-07-25T20:28:42.640Z,12.37
2022-07-25T20:31:35.316Z,12.70
2022-07-25T20:34:27.818Z,10.17
2022-07-25T20:37:21.087Z,13.07
2022-07-25T20:40:16.254Z,11.20
2022-07-25T20:43:09.178Z,12.80
2022-07-25T20:46:03.151Z,13.77
2022-07-25T20:48:59.200Z,12.40
2022-07-25T20:51:54.598Z,12.30
2022-07-25T20:54:47.366Z,12.77
2022-07-25T20:57:40.177Z,13.27
2022-07-25T21:00:32.894Z,9.70
2022-07-25T21:03:25.115Z,13.47
2022-07-25T21:06:17.683Z,12.27
2022-07-25T21:09:10.940Z,10.97
2022-07-25T21:12:04.645Z,14.83
2022-07-25T21:14:57.619Z,11.83
2022-07-25T21:17:49.579Z,12.07
2022-07-25T21:20:43.126Z,11.83
2022-07-25T21:23:35.656Z,15.83
2022-07-25T21:26:27.853Z,11.50
2022-07-25T21:29:19.646Z,11.80
2022-07-25T21:32:13.959Z,12.33
2022-07-25T21:35:06.689Z,12.73
2022-07-25T21:37:58.861Z,14.10
2022-07-25T21:40:51.524Z,12.13
2022-07-25T21:43:44.518Z,10.60
2022-07-25T21:46:36.678Z,13.13
2022-07-25T21:49:46.814Z,12.47
2022-07-25T21:52:39.968Z,13.63
2022-07-25T21:55:32.506Z,12.33
2022-07-25T21:58:24.674Z,13.95
2022-07-25T22:01:17.893Z,18.23
2022-07-25T22:04:10.391Z,10.23
2022-07-25T22:07:02.543Z,14.13
2022-07-25T22:09:54.834Z,12.60
2022-07-25T22:12:47.000Z,13.67
2022-07-25T22:15:39.155Z,14.90
2022-07-25T22:18:31.471Z,12.80
2022-07-25T22:21:23.762Z,12.67
2022-07-25T22:24:15.958Z,12.40
2022-07-25T22:27:08.424Z,13.30
2022-07-25T22:30:00.354Z,13.70
2022-07-25T22:32:53.484Z,12.97
2022-07-25T22:35:45.778Z,14.63
2022-07-25T22:38:39.241Z,12.47
2022-07-25T22:41:31.438Z,12.70
2022-07-25T22:44:23.187Z,12.30
2022-07-25T22:47:15.495Z,12.60
2022-07-25T22:50:11.867Z,11.13
2022-07-25T22:53:04.471Z,14.27
2022-07-25T22:55:56.946Z,11.47
2022-07-25T22:58:50.610Z,14.50
2022-07-25T23:01:43.530Z,14.50
2022-07-25T23:04:35.593Z,11.20
2022-07-25T23:07:28.283Z,14.77
2022-07-25T23:10:20.772Z,13.07
2022-07-25T23:13:13.246Z,11.97
2022-07-25T23:16:05.745Z,13.37
2022-07-25T23:19:04.390Z,12.37
2022-07-25T23:21:56.556Z,11.90
2022-07-25T23:24:48.914Z,12.37
2022-07-25T23:27:42.567Z,15.43
2022-07-25T23:30:40.058Z,15.53
2022-07-25T23:33:32.735Z,13.57
2022-07-25T23:36:25.283Z,14.13
2022-07-25T23:39:17.985Z,13.30
2022-07-25T23:42:10.037Z,13.00
2022-07-25T23:45:03.596Z,18.30
2022-07-25T23:47:59.304Z,15.33
2022-07-25T23:50:51.677Z,14.07
2022-07-25T23:53:43.401Z,14.13
2022-07-25T23:56:36.024Z,13.70
2022-07-25T23:59:27.932Z,14.87
